createdAt,value
2019-03-22T00:00:21.417Z,62.70
2019-03-22T00:00:56.361Z,63.63
2019-03-22T00:01:27.572Z,64.29
2019-03-22T00:01:58.742Z,64.19
2019-03-22T00:02:29.913Z,63.81
2019-03-22T00:03:01.128Z,63.29
2019-03-22T00:03:33.299Z,62.63
2019-03-22T00:04:04.559Z,62.00
2019-03-22T00:04:35.723Z,61.40
2019-03-22T00:05:07.143Z,60.79
2019-03-22T00:05:38.405Z,60.29
2019-03-22T00:06:09.614Z,59.77
2019-03-22T00:06:40.765Z,59.26
2019-03-22T00:07:11.952Z,58.61
2019-03-22T00:07:43.104Z,58.18
2019-03-22T00:08:14.300Z,57.92
2019-03-22T00:08:45.446Z,58.04
2019-03-22T00:09:16.756Z,58.40
2019-03-22T00:09:48.014Z,58.88
2019-03-22T00:10:19.222Z,59.36
2019-03-22T00:10:50.376Z,59.93
2019-03-22T00:11:21.582Z,60.47
2019-03-22T00:11:52.802Z,61.08
2019-03-22T00:12:24.048Z,61.66
2019-03-22T00:12:55.259Z,62.26
2019-03-22T00:13:26.510Z,62.79
2019-03-22T00:13:57.664Z,63.54
2019-03-22T00:14:28.884Z,64.23
2019-03-22T00:15:00.032Z,64.38
2019-03-22T00:15:31.236Z,64.18
2019-03-22T00:16:02.365Z,63.63
2019-03-22T00:16:33.572Z,63.08
2019-03-22T00:17:04.757Z,62.43
2019-03-22T00:17:36.974Z,61.75
2019-03-22T00:18:08.227Z,61.08
2019-03-22T00:18:39.481Z,60.48
2019-03-22T00:19:10.728Z,59.93
2019-03-22T00:19:41.954Z,59.37
2019-03-22T00:20:14.169Z,58.77
2019-03-22T00:20:45.441Z,58.20
2019-03-22T00:21:16.658Z,58.07
2019-03-22T00:21:47.959Z,58.23
2019-03-22T00:22:19.191Z,58.55
2019-03-22T00:22:50.344Z,59.09
2019-03-22T00:23:21.551Z,59.55
2019-03-22T00:23:52.719Z,60.11
2019-03-22T00:24:23.926Z,60.65
2019-03-22T00:24:55.093Z,61.29
2019-03-22T00:25:26.286Z,61.92
2019-03-22T00:25:57.611Z,62.47
2019-03-22T00:26:28.904Z,63.28
2019-03-22T00:27:00.045Z,63.96
2019-03-22T00:27:31.337Z,64.23
2019-03-22T00:28:02.489Z,64.01
2019-03-22T00:28:33.682Z,63.55
2019-03-22T00:29:04.896Z,62.98
2019-03-22T00:29:36.091Z,62.29
2019-03-22T00:30:08.577Z,61.58
2019-03-22T00:30:39.749Z,60.96
2019-03-22T00:31:10.923Z,60.39
2019-03-22T00:31:42.092Z,59.86
2019-03-22T00:32:14.271Z,59.32
2019-03-22T00:32:46.478Z,58.55
2019-03-22T00:33:17.678Z,58.02
2019-03-22T00:33:48.895Z,57.90
2019-03-22T00:34:20.120Z,58.09
2019-03-22T00:34:51.360Z,58.47
2019-03-22T00:35:22.584Z,58.87
2019-03-22T00:35:53.874Z,59.46
2019-03-22T00:36:25.214Z,60.00
2019-03-22T00:36:56.443Z,60.49
2019-03-22T00:37:27.651Z,61.04
2019-03-22T00:37:58.916Z,61.77
2019-03-22T00:38:30.172Z,62.42
2019-03-22T00:39:01.317Z,63.28
2019-03-22T00:39:34.317Z,63.96
2019-03-22T00:40:07.082Z,64.35
2019-03-22T00:40:38.281Z,64.16
2019-03-22T00:41:09.454Z,63.78
2019-03-22T00:41:40.651Z,63.27
2019-03-22T00:42:11.817Z,62.67
2019-03-22T00:42:43.018Z,62.00
2019-03-22T00:43:14.170Z,61.43
2019-03-22T00:43:45.378Z,60.87
2019-03-22T00:44:16.533Z,60.31
2019-03-22T00:44:47.743Z,59.82
2019-03-22T00:45:18.920Z,59.40
2019-03-22T00:45:50.130Z,58.75
2019-03-22T00:46:21.279Z,58.28
2019-03-22T00:46:52.467Z,58.10
2019-03-22T00:47:23.627Z,58.23
2019-03-22T00:47:55.842Z,58.61
2019-03-22T00:48:26.987Z,59.09
2019-03-22T00:48:58.199Z,59.58
2019-03-22T00:49:29.351Z,60.10
2019-03-22T00:50:00.782Z,60.71
2019-03-22T00:50:32.014Z,61.47
2019-03-22T00:51:03.227Z,62.14
2019-03-22T00:51:35.384Z,62.80
2019-03-22T00:52:06.583Z,63.66
2019-03-22T00:52:37.787Z,64.34
2019-03-22T00:53:08.992Z,64.48
2019-03-22T00:53:40.131Z,64.34
2019-03-22T00:54:12.344Z,63.92
2019-03-22T00:54:43.580Z,63.28
2019-03-22T00:55:14.793Z,62.67
2019-03-22T00:55:45.927Z,62.01
2019-03-22T00:56:17.124Z,61.34
2019-03-22T00:56:48.292Z,60.74
2019-03-22T00:57:28.090Z,60.13
2019-03-22T00:57:52.566Z,59.68
2019-03-22T00:58:23.818Z,59.14
2019-03-22T00:58:55.226Z,58.51
2019-03-22T00:59:26.473Z,57.91
2019-03-22T00:59:57.999Z,57.94
2019-03-22T01:00:29.320Z,58.10
2019-03-22T01:01:00.558Z,58.59
2019-03-22T01:01:31.777Z,59.16
2019-03-22T01:02:03.005Z,59.78
2019-03-22T01:02:34.177Z,60.38
2019-03-22T01:03:05.359Z,60.97
2019-03-22T01:03:36.581Z,61.82
2019-03-22T01:04:07.817Z,62.65
2019-03-22T01:04:39.075Z,63.34
2019-03-22T01:05:10.297Z,64.09
2019-03-22T01:05:41.521Z,64.33
2019-03-22T01:06:13.749Z,64.38
2019-03-22T01:06:44.997Z,63.91
2019-03-22T01:07:16.227Z,63.57
2019-03-22T01:07:47.446Z,63.05
2019-03-22T01:08:18.653Z,62.43
2019-03-22T01:08:49.903Z,61.83
2019-03-22T01:09:21.131Z,61.30
2019-03-22T01:09:52.341Z,60.78
2019-03-22T01:10:23.559Z,60.22
2019-03-22T01:10:55.068Z,59.80
2019-03-22T01:11:26.315Z,59.31
2019-03-22T01:11:57.571Z,58.74
2019-03-22T01:12:28.823Z,58.31
2019-03-22T01:13:00.045Z,58.19
2019-03-22T01:13:31.216Z,58.43
2019-03-22T01:14:02.455Z,58.81
2019-03-22T01:14:33.601Z,59.31
2019-03-22T01:15:08.318Z,59.91
2019-03-22T01:15:39.460Z,60.57
2019-03-22T01:16:10.673Z,61.33
2019-03-22T01:16:41.820Z,62.06
2019-03-22T01:17:13.024Z,62.75
2019-03-22T01:17:44.154Z,63.60
2019-03-22T01:18:15.351Z,64.35
2019-03-22T01:18:46.498Z,64.64
2019-03-22T01:19:17.697Z,64.37
2019-03-22T01:19:48.860Z,63.91
2019-03-22T01:20:20.089Z,63.49
2019-03-22T01:20:51.228Z,62.98
2019-03-22T01:21:22.455Z,62.48
2019-03-22T01:21:53.628Z,62.02
2019-03-22T01:22:25.172Z,61.44
2019-03-22T01:22:56.329Z,60.91
2019-03-22T01:23:27.554Z,60.51
2019-03-22T01:23:59.950Z,59.97
2019-03-22T01:24:31.399Z,59.61
2019-03-22T01:25:04.950Z,59.14
2019-03-22T01:25:36.165Z,58.71
2019-03-22T01:26:07.310Z,58.37
2019-03-22T01:26:38.522Z,58.34
2019-03-22T01:27:09.673Z,58.57
2019-03-22T01:27:41.509Z,58.96
2019-03-22T01:28:12.964Z,59.50
2019-03-22T01:28:44.185Z,60.11
2019-03-22T01:29:15.420Z,60.75
2019-03-22T01:29:46.646Z,61.53
2019-03-22T01:30:18.855Z,62.14
2019-03-22T01:30:50.094Z,62.91
2019-03-22T01:31:21.317Z,63.81
2019-03-22T01:31:52.655Z,64.65
2019-03-22T01:32:23.893Z,64.95
2019-03-22T01:32:55.143Z,64.58
2019-03-22T01:33:26.347Z,64.45
2019-03-22T01:33:57.501Z,63.96
2019-03-22T01:34:28.709Z,63.39
2019-03-22T01:34:59.855Z,62.84
2019-03-22T01:35:31.072Z,62.35
2019-03-22T01:36:02.344Z,61.66
2019-03-22T01:36:33.562Z,61.13
2019-03-22T01:37:04.731Z,60.72
2019-03-22T01:37:35.940Z,60.28
2019-03-22T01:38:07.094Z,60.00
2019-03-22T01:38:38.311Z,59.58
2019-03-22T01:39:09.484Z,59.29
2019-03-22T01:39:40.722Z,58.75
2019-03-22T01:40:13.580Z,58.44
2019-03-22T01:40:44.782Z,58.42
2019-03-22T01:41:16.944Z,58.71
2019-03-22T01:41:48.129Z,59.22
2019-03-22T01:42:19.305Z,59.76
2019-03-22T01:42:50.485Z,60.41
2019-03-22T01:43:21.661Z,61.03
2019-03-22T01:43:52.910Z,61.72
2019-03-22T01:44:24.059Z,62.48
2019-03-22T01:44:55.301Z,63.18
2019-03-22T01:45:26.452Z,64.06
2019-03-22T01:45:57.660Z,64.42
2019-03-22T01:46:28.808Z,64.50
2019-03-22T01:46:59.996Z,64.24
2019-03-22T01:47:31.146Z,63.91
2019-03-22T01:48:02.358Z,63.46
2019-03-22T01:48:33.523Z,62.92
2019-03-22T01:49:04.711Z,62.39
2019-03-22T01:49:35.888Z,61.81
2019-03-22T01:50:14.223Z,61.34
2019-03-22T01:50:45.396Z,60.93
2019-03-22T01:51:16.579Z,60.50
2019-03-22T01:51:47.755Z,60.11
2019-03-22T01:52:19.929Z,59.93
2019-03-22T01:52:51.131Z,59.38
2019-03-22T01:53:22.289Z,58.97
2019-03-22T01:53:53.474Z,58.60
2019-03-22T01:54:24.671Z,58.50
2019-03-22T01:54:55.839Z,58.77
2019-03-22T01:55:27.025Z,59.12
2019-03-22T01:55:58.211Z,59.63
2019-03-22T01:56:29.387Z,60.16
2019-03-22T01:57:00.562Z,60.78
2019-03-22T01:57:31.731Z,61.55
2019-03-22T01:58:02.903Z,62.28
2019-03-22T01:58:34.111Z,62.84
2019-03-22T01:59:05.292Z,63.70
2019-03-22T01:59:37.515Z,64.51
2019-03-22T02:00:13.538Z,64.73
2019-03-22T02:00:44.720Z,64.70
2019-03-22T02:01:15.898Z,64.26
2019-03-22T02:01:47.078Z,63.76
2019-03-22T02:02:18.272Z,63.25
2019-03-22T02:02:49.485Z,62.76
2019-03-22T02:03:20.731Z,62.29
2019-03-22T02:03:51.906Z,61.67
2019-03-22T02:04:23.143Z,61.18
2019-03-22T02:04:54.293Z,60.75
2019-03-22T02:05:25.488Z,60.30
2019-03-22T02:05:56.636Z,59.90
2019-03-22T02:06:27.920Z,59.57
2019-03-22T02:06:59.110Z,59.29
2019-03-22T02:07:30.257Z,58.72
2019-03-22T02:08:01.400Z,58.39
2019-03-22T02:08:32.627Z,58.41
2019-03-22T02:09:05.504Z,58.68
2019-03-22T02:09:36.664Z,59.13
2019-03-22T02:10:09.958Z,59.66
2019-03-22T02:10:41.124Z,60.30
2019-03-22T02:11:12.328Z,60.94
2019-03-22T02:11:43.492Z,61.72
2019-03-22T02:12:14.684Z,62.35
2019-03-22T02:12:45.839Z,63.27
2019-03-22T02:13:17.055Z,64.04
2019-03-22T02:13:48.249Z,64.47
2019-03-22T02:14:19.445Z,64.46
2019-03-22T02:14:50.609Z,64.12
2019-03-22T02:15:21.792Z,63.62
2019-03-22T02:15:52.944Z,63.13
2019-03-22T02:16:24.437Z,62.57
2019-03-22T02:16:55.577Z,62.06
2019-03-22T02:17:26.771Z,61.50
2019-03-22T02:17:57.899Z,61.04
2019-03-22T02:18:29.103Z,60.56
2019-03-22T02:19:00.307Z,60.14
2019-03-22T02:19:31.511Z,59.72
2019-03-22T02:20:05.375Z,59.32
2019-03-22T02:20:36.581Z,58.78
2019-03-22T02:21:07.753Z,58.42
2019-03-22T02:21:39.580Z,58.30
2019-03-22T02:22:10.761Z,58.54
2019-03-22T02:22:41.932Z,58.94
2019-03-22T02:23:13.111Z,59.46
2019-03-22T02:23:44.325Z,60.09
2019-03-22T02:24:15.515Z,60.70
2019-03-22T02:24:46.711Z,61.35
2019-03-22T02:25:17.893Z,62.08
2019-03-22T02:25:49.063Z,62.77
2019-03-22T02:26:20.226Z,63.54
2019-03-22T02:26:52.403Z,64.32
2019-03-22T02:27:23.587Z,64.40
2019-03-22T02:28:03.699Z,64.37
2019-03-22T02:28:27.960Z,63.95
2019-03-22T02:28:59.246Z,63.38
2019-03-22T02:29:30.444Z,62.85
2019-03-22T02:30:02.186Z,62.17
2019-03-22T02:30:33.504Z,61.55
2019-03-22T02:31:04.650Z,61.01
2019-03-22T02:31:35.854Z,60.51
2019-03-22T02:32:07.019Z,60.12
2019-03-22T02:32:38.231Z,59.60
2019-03-22T02:33:09.387Z,59.15
2019-03-22T02:33:40.572Z,58.49
2019-03-22T02:34:11.754Z,58.13
2019-03-22T02:34:42.910Z,58.05
2019-03-22T02:35:27.326Z,58.28
2019-03-22T02:35:47.162Z,58.66
2019-03-22T02:36:18.350Z,59.21
2019-03-22T02:36:49.682Z,59.74
2019-03-22T02:37:20.938Z,60.34
2019-03-22T02:37:53.076Z,60.96
2019-03-22T02:38:24.242Z,61.67
2019-03-22T02:38:55.437Z,62.36
2019-03-22T02:39:26.714Z,63.17
2019-03-22T02:39:57.956Z,63.86
2019-03-22T02:40:29.151Z,64.26
2019-03-22T02:41:00.422Z,64.18
2019-03-22T02:41:31.657Z,63.91
2019-03-22T02:42:02.802Z,63.41
2019-03-22T02:42:34.006Z,62.90
2019-03-22T02:43:05.161Z,62.30
2019-03-22T02:43:36.472Z,61.79
2019-03-22T02:44:07.640Z,61.13
2019-03-22T02:44:38.928Z,60.68
2019-03-22T02:45:11.987Z,60.30
2019-03-22T02:45:43.236Z,59.93
2019-03-22T02:46:14.437Z,59.53
2019-03-22T02:46:45.646Z,59.08
2019-03-22T02:47:16.894Z,58.55
2019-03-22T02:47:48.090Z,58.24
2019-03-22T02:48:19.247Z,58.20
2019-03-22T02:48:50.468Z,58.42
2019-03-22T02:49:21.654Z,58.79
2019-03-22T02:49:52.847Z,59.26
2019-03-22T02:50:24.018Z,59.91
2019-03-22T02:50:56.296Z,60.48
2019-03-22T02:51:27.909Z,60.94
2019-03-22T02:51:59.103Z,61.61
2019-03-22T02:52:30.264Z,62.19
2019-03-22T02:53:01.440Z,62.83
2019-03-22T02:53:32.592Z,63.65
2019-03-22T02:54:03.795Z,64.30
2019-03-22T02:54:34.965Z,64.47
2019-03-22T02:55:07.264Z,64.31
2019-03-22T02:55:38.534Z,63.91
2019-03-22T02:56:09.841Z,63.37
2019-03-22T02:56:41.190Z,62.76
2019-03-22T02:57:12.362Z,62.19
2019-03-22T02:57:43.543Z,61.65
2019-03-22T02:58:20.840Z,61.10
2019-03-22T02:58:47.816Z,60.63
2019-03-22T02:59:18.977Z,60.02
2019-03-22T02:59:51.163Z,59.66
2019-03-22T03:00:22.437Z,59.26
2019-03-22T03:00:53.668Z,58.70
2019-03-22T03:01:25.112Z,58.28
2019-03-22T03:01:56.286Z,58.17
2019-03-22T03:02:27.582Z,58.47
2019-03-22T03:02:58.818Z,58.91
2019-03-22T03:03:30.054Z,59.49
2019-03-22T03:04:01.243Z,60.10
2019-03-22T03:04:32.432Z,60.76
2019-03-22T03:05:06.512Z,61.54
2019-03-22T03:05:37.669Z,62.29
2019-03-22T03:06:08.889Z,62.99
2019-03-22T03:06:40.251Z,63.78
2019-03-22T03:07:11.497Z,64.53
2019-03-22T03:07:42.661Z,64.82
2019-03-22T03:08:13.859Z,64.67
2019-03-22T03:08:44.997Z,64.31
2019-03-22T03:09:16.284Z,63.81
2019-03-22T03:09:47.462Z,63.29
2019-03-22T03:10:18.630Z,62.66
2019-03-22T03:10:49.843Z,62.07
2019-03-22T03:11:21.010Z,61.40
2019-03-22T03:11:52.201Z,61.00
2019-03-22T03:12:23.374Z,60.45
2019-03-22T03:12:54.605Z,59.94
2019-03-22T03:13:25.865Z,59.33
2019-03-22T03:13:57.036Z,58.86
2019-03-22T03:14:28.199Z,58.46
2019-03-22T03:14:59.373Z,58.41
2019-03-22T03:15:30.563Z,58.51
2019-03-22T03:16:01.744Z,58.91
2019-03-22T03:16:33.337Z,59.38
2019-03-22T03:17:04.604Z,60.03
2019-03-22T03:17:35.787Z,60.56
2019-03-22T03:18:06.964Z,61.24
2019-03-22T03:18:38.232Z,61.95
2019-03-22T03:19:09.418Z,62.68
2019-03-22T03:19:40.598Z,63.57
2019-03-22T03:20:16.338Z,64.47
2019-03-22T03:20:47.544Z,64.93
2019-03-22T03:21:18.802Z,64.80
2019-03-22T03:21:50.000Z,64.45
2019-03-22T03:22:21.180Z,64.03
2019-03-22T03:22:52.357Z,63.35
2019-03-22T03:23:23.539Z,62.75
2019-03-22T03:23:54.721Z,62.16
2019-03-22T03:24:26.910Z,61.61
2019-03-22T03:24:58.113Z,61.21
2019-03-22T03:25:29.269Z,60.75
2019-03-22T03:26:00.469Z,60.27
2019-03-22T03:26:31.666Z,59.86
2019-03-22T03:27:02.869Z,59.45
2019-03-22T03:27:34.019Z,58.96
2019-03-22T03:28:05.342Z,58.53
2019-03-22T03:28:37.606Z,58.45
2019-03-22T03:29:09.001Z,58.67
2019-03-22T03:29:40.230Z,59.11
2019-03-22T03:30:16.636Z,59.51
2019-03-22T03:30:47.798Z,60.08
2019-03-22T03:31:19.073Z,60.76
2019-03-22T03:31:50.350Z,61.48
2019-03-22T03:32:21.568Z,62.28
2019-03-22T03:32:52.778Z,62.85
2019-03-22T03:33:24.389Z,63.59
2019-03-22T03:33:55.551Z,64.52
2019-03-22T03:34:26.738Z,64.86
2019-03-22T03:34:58.074Z,64.76
2019-03-22T03:35:29.370Z,64.42
2019-03-22T03:36:00.629Z,63.92
2019-03-22T03:36:34.806Z,63.40
2019-03-22T03:37:04.980Z,62.80
2019-03-22T03:37:36.189Z,62.26
2019-03-22T03:38:07.348Z,61.76
2019-03-22T03:38:38.553Z,61.38
2019-03-22T03:39:09.713Z,60.85
2019-03-22T03:39:40.912Z,60.36
2019-03-22T03:40:12.595Z,60.08
2019-03-22T03:40:43.774Z,59.67
2019-03-22T03:41:14.963Z,59.37
2019-03-22T03:41:46.193Z,58.84
2019-03-22T03:42:17.409Z,58.54
2019-03-22T03:42:48.600Z,58.58
2019-03-22T03:43:19.746Z,58.82
2019-03-22T03:43:50.924Z,59.23
2019-03-22T03:44:22.112Z,59.81
2019-03-22T03:44:53.336Z,60.43
2019-03-22T03:45:35.518Z,61.05
2019-03-22T03:46:06.796Z,61.90
2019-03-22T03:46:37.998Z,62.81
2019-03-22T03:47:10.709Z,63.75
2019-03-22T03:47:41.975Z,64.52
2019-03-22T03:48:13.147Z,64.93
2019-03-22T03:48:44.342Z,64.83
2019-03-22T03:49:15.525Z,64.54
2019-03-22T03:49:46.717Z,64.05
2019-03-22T03:50:17.950Z,63.59
2019-03-22T03:50:49.117Z,63.07
2019-03-22T03:51:20.358Z,62.49
2019-03-22T03:51:51.580Z,62.02
2019-03-22T03:52:22.775Z,61.49
2019-03-22T03:52:53.930Z,61.02
2019-03-22T03:53:26.130Z,60.62
2019-03-22T03:53:57.304Z,60.25
2019-03-22T03:54:28.593Z,59.86
2019-03-22T03:54:59.741Z,59.53
2019-03-22T03:55:30.944Z,59.34
2019-03-22T03:56:02.197Z,58.83
2019-03-22T03:56:33.493Z,58.53
2019-03-22T03:57:04.654Z,58.49
2019-03-22T03:57:35.874Z,58.78
2019-03-22T03:58:07.145Z,59.14
2019-03-22T03:58:51.786Z,59.88
2019-03-22T03:59:11.413Z,60.49
2019-03-22T03:59:42.616Z,61.19
2019-03-22T04:00:13.780Z,62.04
2019-03-22T04:00:44.981Z,62.88
2019-03-22T04:01:16.138Z,63.77
2019-03-22T04:01:47.358Z,64.54
2019-03-22T04:02:18.597Z,64.84
2019-03-22T04:02:49.792Z,64.79
2019-03-22T04:03:20.963Z,64.56
2019-03-22T04:03:52.196Z,64.13
2019-03-22T04:04:24.354Z,63.57
2019-03-22T04:04:55.525Z,62.96
2019-03-22T04:05:27.754Z,62.41
2019-03-22T04:05:59.193Z,61.99
2019-03-22T04:06:30.451Z,61.52
2019-03-22T04:07:01.714Z,61.14
2019-03-22T04:07:32.961Z,60.77
2019-03-22T04:08:05.171Z,60.29
2019-03-22T04:08:36.347Z,60.04
2019-03-22T04:09:07.562Z,59.76
2019-03-22T04:09:38.714Z,59.52
2019-03-22T04:10:09.915Z,59.14
2019-03-22T04:10:41.106Z,58.60
2019-03-22T04:11:12.341Z,58.29
2019-03-22T04:11:43.588Z,58.35
2019-03-22T04:12:14.820Z,58.61
2019-03-22T04:12:46.041Z,59.12
2019-03-22T04:13:17.273Z,59.64
2019-03-22T04:13:48.492Z,60.24
2019-03-22T04:14:19.739Z,60.90
2019-03-22T04:14:50.973Z,61.60
2019-03-22T04:15:22.190Z,62.32
2019-03-22T04:15:53.403Z,62.97
2019-03-22T04:16:24.563Z,63.89
2019-03-22T04:16:56.767Z,64.63
2019-03-22T04:17:27.936Z,64.81
2019-03-22T04:17:59.203Z,64.73
2019-03-22T04:18:30.417Z,64.42
2019-03-22T04:19:01.800Z,63.89
2019-03-22T04:19:32.941Z,63.37
2019-03-22T04:20:06.125Z,62.85
2019-03-22T04:20:37.337Z,62.39
2019-03-22T04:21:08.578Z,61.88
2019-03-22T04:21:39.714Z,61.42
2019-03-22T04:22:10.934Z,61.00
2019-03-22T04:22:42.095Z,60.57
2019-03-22T04:23:13.296Z,60.19
2019-03-22T04:23:44.450Z,59.82
2019-03-22T04:24:15.666Z,59.48
2019-03-22T04:24:46.824Z,58.94
2019-03-22T04:25:18.094Z,58.52
2019-03-22T04:25:49.353Z,58.42
2019-03-22T04:26:20.590Z,58.63
2019-03-22T04:26:51.827Z,59.08
2019-03-22T04:27:23.071Z,59.65
2019-03-22T04:27:54.512Z,60.25
2019-03-22T04:28:25.753Z,60.96
2019-03-22T04:29:07.411Z,61.67
2019-03-22T04:29:30.136Z,62.40
2019-03-22T04:30:01.601Z,63.29
2019-03-22T04:30:33.926Z,64.04
2019-03-22T04:31:05.174Z,64.53
2019-03-22T04:31:36.380Z,64.51
2019-03-22T04:32:07.589Z,64.21
2019-03-22T04:32:38.769Z,63.81
2019-03-22T04:33:09.985Z,63.25
2019-03-22T04:33:41.153Z,62.73
2019-03-22T04:34:12.354Z,62.19
2019-03-22T04:34:44.515Z,61.64
2019-03-22T04:35:15.855Z,61.11
2019-03-22T04:35:47.005Z,60.67
2019-03-22T04:36:18.188Z,60.20
2019-03-22T04:36:49.360Z,59.69
2019-03-22T04:37:20.573Z,59.33
2019-03-22T04:37:51.720Z,58.86
2019-03-22T04:38:22.918Z,58.46
2019-03-22T04:38:54.076Z,58.43
2019-03-22T04:39:25.346Z,58.65
2019-03-22T04:39:56.550Z,59.06
2019-03-22T04:40:28.575Z,59.59
2019-03-22T04:40:59.760Z,60.18
2019-03-22T04:41:31.971Z,60.83
2019-03-22T04:42:03.234Z,61.53
2019-03-22T04:42:34.448Z,62.25
2019-03-22T04:43:05.602Z,62.90
2019-03-22T04:43:36.804Z,63.86
2019-03-22T04:44:07.964Z,64.57
2019-03-22T04:44:39.142Z,64.85
2019-03-22T04:45:10.288Z,64.73
2019-03-22T04:45:41.556Z,64.36
2019-03-22T04:46:12.744Z,63.97
2019-03-22T04:46:43.921Z,63.46
2019-03-22T04:47:15.100Z,62.82
2019-03-22T04:47:46.293Z,62.31
2019-03-22T04:48:29.482Z,61.83
2019-03-22T04:49:00.675Z,61.34
2019-03-22T04:49:32.374Z,60.80
2019-03-22T04:50:04.660Z,60.39
2019-03-22T04:50:38.034Z,59.98
2019-03-22T04:51:09.215Z,59.65
2019-03-22T04:51:41.484Z,59.22
2019-03-22T04:52:12.684Z,58.69
2019-03-22T04:52:43.889Z,58.34
2019-03-22T04:53:17.464Z,58.47
2019-03-22T04:53:49.670Z,58.77
2019-03-22T04:54:21.845Z,59.19
2019-03-22T04:54:53.039Z,59.90
2019-03-22T04:55:24.477Z,60.55
2019-03-22T04:55:58.751Z,61.18
2019-03-22T04:56:31.026Z,61.77
2019-03-22T04:57:02.435Z,62.74
2019-03-22T04:57:33.631Z,63.63
2019-03-22T04:58:04.811Z,64.40
2019-03-22T04:58:36.038Z,64.70
2019-03-22T04:59:18.501Z,64.63
2019-03-22T04:59:42.351Z,64.34
2019-03-22T05:00:13.498Z,63.90
2019-03-22T05:00:44.743Z,63.27
2019-03-22T05:01:17.500Z,62.68
2019-03-22T05:01:49.742Z,62.03
2019-03-22T05:02:20.882Z,61.46
2019-03-22T05:02:52.092Z,61.00
2019-03-22T05:03:23.558Z,60.51
2019-03-22T05:03:55.243Z,60.08
2019-03-22T05:04:26.392Z,59.75
2019-03-22T05:04:57.699Z,59.48
2019-03-22T05:05:28.866Z,58.96
2019-03-22T05:06:00.397Z,58.63
2019-03-22T05:06:31.592Z,58.59
2019-03-22T05:07:02.764Z,58.79
2019-03-22T05:07:34.008Z,59.23
2019-03-22T05:08:05.847Z,59.73
2019-03-22T05:08:37.577Z,60.41
2019-03-22T05:09:08.794Z,60.99
2019-03-22T05:09:40.042Z,61.75
2019-03-22T05:10:12.052Z,62.45
2019-03-22T05:10:43.501Z,63.22
2019-03-22T05:11:14.724Z,64.09
2019-03-22T05:11:45.932Z,64.60
2019-03-22T05:12:17.507Z,64.52
2019-03-22T05:12:48.714Z,64.16
2019-03-22T05:13:19.871Z,63.66
2019-03-22T05:13:51.181Z,63.06
2019-03-22T05:14:22.341Z,62.48
2019-03-22T05:14:54.941Z,61.92
2019-03-22T05:15:26.107Z,61.37
2019-03-22T05:15:57.399Z,60.82
2019-03-22T05:16:28.661Z,60.42
2019-03-22T05:17:00.085Z,59.87
2019-03-22T05:17:31.342Z,59.39
2019-03-22T05:18:02.575Z,58.90
2019-03-22T05:18:33.721Z,58.48
2019-03-22T05:19:05.529Z,58.37
2019-03-22T05:19:36.781Z,58.43
2019-03-22T05:20:08.005Z,58.89
2019-03-22T05:20:39.153Z,59.38
2019-03-22T05:21:10.372Z,59.93
2019-03-22T05:21:41.553Z,60.60
2019-03-22T05:22:12.784Z,61.14
2019-03-22T05:22:43.926Z,61.77
2019-03-22T05:23:15.127Z,62.50
2019-03-22T05:23:46.384Z,63.37
2019-03-22T05:24:18.451Z,64.15
2019-03-22T05:24:49.661Z,64.46
2019-03-22T05:25:20.872Z,64.31
2019-03-22T05:25:52.034Z,63.92
2019-03-22T05:26:23.449Z,63.34
2019-03-22T05:26:54.660Z,62.70
2019-03-22T05:27:25.897Z,62.07
2019-03-22T05:27:57.312Z,61.61
2019-03-22T05:28:28.533Z,61.08
2019-03-22T05:28:59.748Z,60.51
2019-03-22T05:29:31.189Z,60.03
2019-03-22T05:30:04.734Z,59.51
2019-03-22T05:31:11.314Z,59.12
2019-03-22T05:32:05.236Z,58.40
2019-03-22T05:32:36.450Z,58.26
2019-03-22T05:33:07.625Z,58.72
2019-03-22T05:33:39.045Z,58.97
2019-03-22T05:34:10.210Z,59.48
2019-03-22T05:34:41.426Z,60.08
2019-03-22T05:35:12.583Z,60.64
2019-03-22T05:35:43.770Z,61.24
2019-03-22T05:36:15.040Z,61.92
2019-03-22T05:36:46.192Z,62.45
2019-03-22T05:37:17.378Z,63.23
2019-03-22T05:37:48.580Z,64.05
2019-03-22T05:38:19.724Z,64.30
2019-03-22T05:38:50.940Z,64.24
2019-03-22T05:39:22.111Z,63.88
2019-03-22T05:39:53.303Z,63.33
2019-03-22T05:40:24.455Z,62.78
2019-03-22T05:40:55.659Z,62.07
2019-03-22T05:41:26.822Z,61.58
2019-03-22T05:41:58.026Z,60.98
2019-03-22T05:42:29.211Z,60.25
2019-03-22T05:43:00.405Z,59.77
2019-03-22T05:43:31.569Z,59.32
2019-03-22T05:44:02.778Z,58.55
2019-03-22T05:44:34.007Z,58.07
2019-03-22T05:45:05.570Z,57.98
2019-03-22T05:45:36.799Z,58.17
2019-03-22T05:46:08.014Z,58.57
2019-03-22T05:46:39.175Z,58.88
2019-03-22T05:47:10.405Z,59.47
2019-03-22T05:47:42.585Z,60.08
2019-03-22T05:48:13.762Z,60.55
2019-03-22T05:48:44.951Z,61.21
2019-03-22T05:49:17.145Z,61.78
2019-03-22T05:49:48.336Z,62.54
2019-03-22T05:50:19.515Z,63.16
2019-03-22T05:50:50.698Z,63.97
2019-03-22T05:51:21.886Z,64.27
2019-03-22T05:51:54.511Z,64.22
2019-03-22T05:52:25.705Z,63.65
2019-03-22T05:52:56.888Z,63.17
2019-03-22T05:53:28.054Z,62.51
2019-03-22T05:53:59.218Z,61.94
2019-03-22T05:54:30.398Z,61.17
2019-03-22T05:55:01.580Z,60.72
2019-03-22T05:55:32.768Z,60.21
2019-03-22T05:56:03.954Z,59.60
2019-03-22T05:56:35.150Z,58.97
2019-03-22T05:57:13.219Z,58.20
2019-03-22T05:57:39.411Z,57.75
2019-03-22T05:58:10.592Z,57.69
2019-03-22T05:58:41.851Z,58.17
2019-03-22T05:59:13.037Z,58.32
2019-03-22T05:59:44.228Z,58.81
2019-03-22T06:00:16.667Z,59.55
2019-03-22T06:00:47.894Z,60.05
2019-03-22T06:01:19.084Z,60.59
2019-03-22T06:01:50.278Z,61.28
2019-03-22T06:02:21.471Z,62.08
2019-03-22T06:02:52.679Z,62.65
2019-03-22T06:03:23.830Z,63.21
2019-03-22T06:03:55.101Z,64.05
2019-03-22T06:04:26.248Z,64.18
2019-03-22T06:04:57.441Z,63.85
2019-03-22T06:05:28.601Z,63.34
2019-03-22T06:05:59.815Z,62.92
2019-03-22T06:06:30.971Z,62.43
2019-03-22T06:07:02.179Z,61.77
2019-03-22T06:07:33.348Z,61.27
2019-03-22T06:08:04.574Z,60.75
2019-03-22T06:08:35.721Z,59.97
2019-03-22T06:09:08.215Z,59.37
2019-03-22T06:09:39.383Z,58.83
2019-03-22T06:10:10.595Z,58.31
2019-03-22T06:10:41.751Z,58.12
2019-03-22T06:11:13.951Z,58.26
2019-03-22T06:11:45.749Z,58.63
2019-03-22T06:12:17.011Z,59.09
2019-03-22T06:12:48.163Z,59.61
2019-03-22T06:13:20.088Z,60.33
2019-03-22T06:13:51.242Z,60.95
2019-03-22T06:14:22.476Z,61.57
2019-03-22T06:14:53.691Z,62.32
2019-03-22T06:15:25.200Z,62.75
2019-03-22T06:15:56.366Z,63.55
2019-03-22T06:16:27.591Z,64.21
2019-03-22T06:16:58.737Z,64.41
2019-03-22T06:17:29.944Z,64.33
2019-03-22T06:18:01.130Z,64.12
2019-03-22T06:18:32.331Z,63.51
2019-03-22T06:19:03.488Z,62.76
2019-03-22T06:19:34.690Z,62.16
2019-03-22T06:20:06.065Z,61.54
2019-03-22T06:20:37.284Z,60.89
2019-03-22T06:21:08.451Z,60.34
2019-03-22T06:21:39.648Z,59.83
2019-03-22T06:22:10.808Z,59.45
2019-03-22T06:22:42.016Z,58.80
2019-03-22T06:23:13.192Z,58.33
2019-03-22T06:23:44.378Z,58.32
2019-03-22T06:24:15.557Z,58.51
2019-03-22T06:24:46.732Z,58.95
2019-03-22T06:25:17.916Z,59.37
2019-03-22T06:25:49.101Z,59.91
2019-03-22T06:26:20.306Z,60.57
2019-03-22T06:26:51.481Z,61.28
2019-03-22T06:27:22.665Z,61.87
2019-03-22T06:27:53.853Z,62.37
2019-03-22T06:28:26.309Z,63.24
2019-03-22T06:28:57.503Z,63.93
2019-03-22T06:29:28.691Z,64.38
2019-03-22T06:29:59.899Z,64.28
2019-03-22T06:30:31.135Z,63.80
2019-03-22T06:31:02.396Z,63.36
2019-03-22T06:31:33.660Z,62.65
2019-03-22T06:32:04.913Z,61.85
2019-03-22T06:32:36.147Z,61.01
2019-03-22T06:33:07.391Z,60.48
2019-03-22T06:33:38.605Z,60.10
2019-03-22T06:34:09.759Z,59.64
2019-03-22T06:34:41.013Z,59.15
2019-03-22T06:35:12.181Z,58.55
2019-03-22T06:35:43.379Z,58.19
2019-03-22T06:36:14.554Z,58.02
2019-03-22T06:36:45.734Z,58.19
2019-03-22T06:37:16.912Z,58.69
2019-03-22T06:37:48.096Z,59.07
2019-03-22T06:38:19.282Z,59.68
2019-03-22T06:38:50.524Z,60.29
2019-03-22T06:39:21.706Z,60.98
2019-03-22T06:39:52.931Z,61.61
2019-03-22T06:40:24.088Z,62.23
2019-03-22T06:40:55.504Z,62.85
2019-03-22T06:41:26.664Z,63.77
2019-03-22T06:41:57.853Z,64.39
2019-03-22T06:42:29.016Z,64.54
2019-03-22T06:43:00.331Z,64.42
2019-03-22T06:43:31.509Z,64.02
2019-03-22T06:44:02.682Z,63.50
2019-03-22T06:44:33.869Z,62.88
2019-03-22T06:45:05.132Z,62.16
2019-03-22T06:45:36.312Z,61.48